CSM4 weather

CLOSED Ste-Julienne Airport
Ste-Julienne, Quebec, Canada

Public forecast

Using degrees Celsius for public forecast. Weather courtesy of forecast.io.

METAR (pilot weather report)

Closest report is Montreal International (Mirabel) Airport, 20.5 nm (37.9 km) SW. Retrieved 2019/07/20 14:00 UTC (52 minutes ago):

CYMX 201400Z 25007KT 210V310 25SM FEW010 FEW160 SCT200 BKN250 26/23 A2975 RMK CF1AC1CI2CI2 CF TR SLP077 DENSITY ALT 1800FT

TAF (pilot weather forecast)

Closest forecast is Montreal International (Mirabel) Airport, 20.5 nm (37.9 km) SW. Retrieved 2019/07/20 12:45 UTC (2 hours ago):

TAF TAF CYMX 201141Z 2012/2112 25005KT P6SM BKN006 OVC260 BECMG 2012/2014 OVC260 FM201600 23010G20KT P6SM BKN040 TEMPO 2016/2018 P6SM -SHRA FM201800 25010G20KT P6SM BKN030 TEMPO 2018/2023 P6SM -SHRA BKN015 PROB30 2019/2023 VRB15G25KT 2SM TSRA BR BKN008 BKN020CB FM202300 26010G20KT P6SM SCT015 TEMPO 2023/2102 BKN015 BECMG 2100/2102 26007KT FM210500 23005KT P6SM BKN140 FM210700 25007KT P6SM -SHRA SCT040 BKN100 RMK NXT FCST BY 201800Z